KBAF/BAF METAR and TAF weather

Enter ICAO airport designator
Station Type Date Time Source
KBAF METAR 2019/02/23 16:53 UTC NOAA

KBAF 231653Z 00000KT 10SM CLR 02/M09 A3043 RMK AO2 SLP312 T00171089


Station Type Date Time Source
KBAF Decoded METAR 2019/02/23 16:53 UTC NOAA

WESTFIELD BARNES MUNICIPAL, MA, United States (KBAF) 42-10N 072-43W 83M
Feb 23, 2019 - 11:53 AM EST / 2019.02.23 1653 UTC
Wind: Calm:0
Visibility: 10 mile(s):0
Sky conditions: clear
Temperature: 35.1 F (1.7 C)
Dew Point: 16.0 F (-8.9 C)
Relative Humidity: 45%
Pressure (altimeter): 30.43 in. Hg (1030 hPa)
ob: KBAF 231653Z 00000KT 10SM CLR 02/M09 A3043 RMK AO2 SLP312 T00171089
cycle: 17

Station Type Date Time Source
KBAF TAF 2019/02/23 12:33 UTC NOAA

TAF KBAF 231131Z 2312/2412 00000KT P6SM FEW250
FM231800 18003KT P6SM BKN250
FM240000 00000KT P6SM OVC150
FM240600 10003KT P6SM VCSH OVC060
FM240800 08003KT 2SM -FZRAPL BR OVC020
FM241000 07005KT 2SM -FZRA BR OVC008


Example: see airport list